sensor_id;sensor_type;location;lat;lon;timestamp;temperature;humidity
48535;DHT22;34323;52.022;5.686;2022-10-16T00:00:40;18.00;99.90
48535;DHT22;34323;52.022;5.686;2022-10-16T00:03:06;18.10;99.90
48535;DHT22;34323;52.022;5.686;2022-10-16T00:05:32;18.20;99.90
48535;DHT22;34323;52.022;5.686;2022-10-16T00:07:58;18.20;99.90
48535;DHT22;34323;52.022;5.686;2022-10-16T00:10:24;17.80;99.90
48535;DHT22;34323;52.022;5.686;2022-10-16T00:12:49;17.70;99.90
48535;DHT22;34323;52.022;5.686;2022-10-16T00:15:15;17.80;99.90
48535;DHT22;34323;52.022;5.686;2022-10-16T00:17:41;17.90;99.90
48535;DHT22;34323;52.022;5.686;2022-10-16T00:20:06;18.10;99.90
48535;DHT22;34323;52.022;5.686;2022-10-16T00:22:33;18.00;99.90
48535;DHT22;34323;52.022;5.686;2022-10-16T00:24:58;18.20;99.90
48535;DHT22;34323;52.022;5.686;2022-10-16T00:27:24;18.20;99.90
48535;DHT22;34323;52.022;5.686;2022-10-16T00:29:50;18.00;99.90
48535;DHT22;34323;52.022;5.686;2022-10-16T00:32:17;17.90;99.90
48535;DHT22;34323;52.022;5.686;2022-10-16T00:34:42;17.90;99.90
48535;DHT22;34323;52.022;5.686;2022-10-16T00:37:08;17.80;99.90
48535;DHT22;34323;52.022;5.686;2022-10-16T00:39:33;17.40;99.90
48535;DHT22;34323;52.022;5.686;2022-10-16T00:41:59;17.30;99.90
48535;DHT22;34323;52.022;5.686;2022-10-16T00:44:45;17.50;99.90
48535;DHT22;34323;52.022;5.686;2022-10-16T00:49:50;17.80;99.90
48535;DHT22;34323;52.022;5.686;2022-10-16T00:52:17;17.50;99.90
48535;DHT22;34323;52.022;5.686;2022-10-16T00:54:43;17.80;99.90
48535;DHT22;34323;52.022;5.686;2022-10-16T00:57:09;17.80;99.90
48535;DHT22;34323;52.022;5.686;2022-10-16T00:59:40;17.80;99.90
48535;DHT22;34323;52.022;5.686;2022-10-16T01:02:15;17.90;99.90
48535;DHT22;34323;52.022;5.686;2022-10-16T01:04:47;17.80;99.90
48535;DHT22;34323;52.022;5.686;2022-10-16T01:10:04;17.60;99.90
48535;DHT22;34323;52.022;5.686;2022-10-16T01:15:27;17.70;99.90
48535;DHT22;34323;52.022;5.686;2022-10-16T01:18:01;17.80;99.90
48535;DHT22;34323;52.022;5.686;2022-10-16T01:20:50;18.10;99.90
48535;DHT22;34323;52.022;5.686;2022-10-16T01:23:47;18.10;99.90
48535;DHT22;34323;52.022;5.686;2022-10-16T01:26:37;18.00;99.90
48535;DHT22;34323;52.022;5.686;2022-10-16T01:29:25;17.60;99.90
48535;DHT22;34323;52.022;5.686;2022-10-16T01:31:57;17.50;99.90
48535;DHT22;34323;52.022;5.686;2022-10-16T01:34:38;17.60;99.90
48535;DHT22;34323;52.022;5.686;2022-10-16T01:37:11;18.00;99.90
48535;DHT22;34323;52.022;5.686;2022-10-16T01:39:39;18.10;99.90
48535;DHT22;34323;52.022;5.686;2022-10-16T01:42:12;18.20;99.90
48535;DHT22;34323;52.022;5.686;2022-10-16T01:44:39;17.90;99.90
48535;DHT22;34323;52.022;5.686;2022-10-16T01:47:09;18.10;99.90
48535;DHT22;34323;52.022;5.686;2022-10-16T01:49:37;17.90;99.90
48535;DHT22;34323;52.022;5.686;2022-10-16T01:52:07;17.90;99.90
48535;DHT22;34323;52.022;5.686;2022-10-16T01:54:35;18.00;99.90
48535;DHT22;34323;52.022;5.686;2022-10-16T01:57:03;18.30;99.90
48535;DHT22;34323;52.022;5.686;2022-10-16T01:59:32;18.40;99.90
48535;DHT22;34323;52.022;5.686;2022-10-16T02:02:05;18.50;99.90
48535;DHT22;34323;52.022;5.686;2022-10-16T02:04:38;18.50;99.90
48535;DHT22;34323;52.022;5.686;2022-10-16T02:07:05;18.40;99.90
48535;DHT22;34323;52.022;5.686;2022-10-16T02:09:33;18.50;99.90
48535;DHT22;34323;52.022;5.686;2022-10-16T02:12:03;18.40;99.90
48535;DHT22;34323;52.022;5.686;2022-10-16T02:14:32;18.00;99.90
48535;DHT22;34323;52.022;5.686;2022-10-16T02:16:58;17.90;99.90
48535;DHT22;34323;52.022;5.686;2022-10-16T02:19:23;18.10;99.90
48535;DHT22;34323;52.022;5.686;2022-10-16T02:21:58;18.10;99.90
48535;DHT22;34323;52.022;5.686;2022-10-16T02:24:57;18.30;99.90
48535;DHT22;34323;52.022;5.686;2022-10-16T02:27:29;18.00;99.90
48535;DHT22;34323;52.022;5.686;2022-10-16T02:32:33;18.10;99.90
48535;DHT22;34323;52.022;5.686;2022-10-16T02:34:59;18.10;99.90
48535;DHT22;34323;52.022;5.686;2022-10-16T02:37:26;17.80;99.90
48535;DHT22;34323;52.022;5.686;2022-10-16T02:39:53;17.70;99.90
48535;DHT22;34323;52.022;5.686;2022-10-16T02:42:19;17.90;99.90
48535;DHT22;34323;52.022;5.686;2022-10-16T02:44:45;18.00;99.90
48535;DHT22;34323;52.022;5.686;2022-10-16T02:47:10;18.00;99.90
48535;DHT22;34323;52.022;5.686;2022-10-16T02:49:37;17.80;99.90
48535;DHT22;34323;52.022;5.686;2022-10-16T02:52:02;17.90;99.90
48535;DHT22;34323;52.022;5.686;2022-10-16T02:54:28;18.10;99.90
48535;DHT22;34323;52.022;5.686;2022-10-16T02:56:53;18.30;99.90
48535;DHT22;34323;52.022;5.686;2022-10-16T02:59:19;18.30;99.90
48535;DHT22;34323;52.022;5.686;2022-10-16T03:01:45;18.20;99.90
48535;DHT22;34323;52.022;5.686;2022-10-16T03:04:10;18.30;99.90
48535;DHT22;34323;52.022;5.686;2022-10-16T03:06:36;18.40;99.90
48535;DHT22;34323;52.022;5.686;2022-10-16T03:09:02;18.50;99.90
48535;DHT22;34323;52.022;5.686;2022-10-16T03:11:27;18.30;99.90
48535;DHT22;34323;52.022;5.686;2022-10-16T03:13:53;18.20;99.90
48535;DHT22;34323;52.022;5.686;2022-10-16T03:16:19;18.10;99.90
48535;DHT22;34323;52.022;5.686;2022-10-16T03:18:48;18.10;99.90
48535;DHT22;34323;52.022;5.686;2022-10-16T03:21:15;18.20;99.90
48535;DHT22;34323;52.022;5.686;2022-10-16T03:23:40;18.00;99.90
48535;DHT22;34323;52.022;5.686;2022-10-16T03:26:06;17.80;99.90
48535;DHT22;34323;52.022;5.686;2022-10-16T03:28:31;17.60;99.90
48535;DHT22;34323;52.022;5.686;2022-10-16T03:30:57;17.40;99.90
48535;DHT22;34323;52.022;5.686;2022-10-16T03:33:22;17.50;99.90
48535;DHT22;34323;52.022;5.686;2022-10-16T03:35:53;17.70;99.90
48535;DHT22;34323;52.022;5.686;2022-10-16T03:38:19;18.10;99.90
48535;DHT22;34323;52.022;5.686;2022-10-16T03:40:44;18.40;99.90
48535;DHT22;34323;52.022;5.686;2022-10-16T03:43:10;18.50;99.90
48535;DHT22;34323;52.022;5.686;2022-10-16T03:45:35;18.40;99.90
48535;DHT22;34323;52.022;5.686;2022-10-16T03:48:01;18.40;99.90
48535;DHT22;34323;52.022;5.686;2022-10-16T03:50:27;18.40;99.90
48535;DHT22;34323;52.022;5.686;2022-10-16T03:52:53;18.20;99.90
48535;DHT22;34323;52.022;5.686;2022-10-16T03:55:19;18.00;99.90
48535;DHT22;34323;52.022;5.686;2022-10-16T03:57:44;18.20;99.90
48535;DHT22;34323;52.022;5.686;2022-10-16T04:00:10;18.40;99.90
48535;DHT22;34323;52.022;5.686;2022-10-16T04:02:36;18.40;99.90
48535;DHT22;34323;52.022;5.686;2022-10-16T04:05:02;18.50;99.90
48535;DHT22;34323;52.022;5.686;2022-10-16T04:07:27;18.70;99.90
48535;DHT22;34323;52.022;5.686;2022-10-16T04:09:53;18.70;99.90
48535;DHT22;34323;52.022;5.686;2022-10-16T04:12:19;18.60;99.90
48535;DHT22;34323;52.022;5.686;2022-10-16T04:14:45;18.40;99.90
48535;DHT22;34323;52.022;5.686;2022-10-16T04:17:10;18.50;99.90
48535;DHT22;34323;52.022;5.686;2022-10-16T04:19:36;18.50;99.90
48535;DHT22;34323;52.022;5.686;2022-10-16T04:22:02;18.40;99.90
48535;DHT22;34323;52.022;5.686;2022-10-16T04:24:28;18.40;99.90
48535;DHT22;34323;52.022;5.686;2022-10-16T04:26:53;18.40;99.90
48535;DHT22;34323;52.022;5.686;2022-10-16T04:29:19;18.40;99.90
48535;DHT22;34323;52.022;5.686;2022-10-16T04:31:44;18.50;99.90
48535;DHT22;34323;52.022;5.686;2022-10-16T04:34:10;18.10;99.90
48535;DHT22;34323;52.022;5.686;2022-10-16T04:36:35;17.50;99.90
48535;DHT22;34323;52.022;5.686;2022-10-16T04:39:01;17.50;99.90
48535;DHT22;34323;52.022;5.686;2022-10-16T04:41:26;17.70;99.90
48535;DHT22;34323;52.022;5.686;2022-10-16T04:43:52;17.70;99.90
48535;DHT22;34323;52.022;5.686;2022-10-16T04:46:18;17.80;99.90
48535;DHT22;34323;52.022;5.686;2022-10-16T04:48:43;17.60;99.90
48535;DHT22;34323;52.022;5.686;2022-10-16T04:51:09;17.80;99.90
48535;DHT22;34323;52.022;5.686;2022-10-16T04:53:34;18.00;99.90
48535;DHT22;34323;52.022;5.686;2022-10-16T04:56:00;17.90;99.90
48535;DHT22;34323;52.022;5.686;2022-10-16T04:58:25;17.80;99.90
48535;DHT22;34323;52.022;5.686;2022-10-16T05:00:51;17.90;99.90
48535;DHT22;34323;52.022;5.686;2022-10-16T05:03:16;17.70;99.90
48535;DHT22;34323;52.022;5.686;2022-10-16T05:05:43;17.90;99.90
48535;DHT22;34323;52.022;5.686;2022-10-16T05:08:10;18.10;99.90
48535;DHT22;34323;52.022;5.686;2022-10-16T05:10:35;18.30;99.90
48535;DHT22;34323;52.022;5.686;2022-10-16T05:13:01;18.50;99.90
48535;DHT22;34323;52.022;5.686;2022-10-16T05:15:26;18.50;99.90
48535;DHT22;34323;52.022;5.686;2022-10-16T05:17:53;18.40;99.90
48535;DHT22;34323;52.022;5.686;2022-10-16T05:20:19;18.70;99.90
48535;DHT22;34323;52.022;5.686;2022-10-16T05:22:44;18.70;99.90
48535;DHT22;34323;52.022;5.686;2022-10-16T05:25:10;18.60;99.90
48535;DHT22;34323;52.022;5.686;2022-10-16T05:27:36;18.50;99.90
48535;DHT22;34323;52.022;5.686;2022-10-16T05:30:02;18.50;99.90
48535;DHT22;34323;52.022;5.686;2022-10-16T05:32:28;18.30;99.90
48535;DHT22;34323;52.022;5.686;2022-10-16T05:34:53;18.20;99.90
48535;DHT22;34323;52.022;5.686;2022-10-16T05:37:19;18.20;99.90
48535;DHT22;34323;52.022;5.686;2022-10-16T05:39:45;17.90;99.90
48535;DHT22;34323;52.022;5.686;2022-10-16T05:42:10;18.10;99.90
48535;DHT22;34323;52.022;5.686;2022-10-16T05:44:36;18.00;99.90
48535;DHT22;34323;52.022;5.686;2022-10-16T05:47:01;17.70;99.90
48535;DHT22;34323;52.022;5.686;2022-10-16T05:49:27;17.50;99.90
48535;DHT22;34323;52.022;5.686;2022-10-16T05:51:52;17.50;99.90
48535;DHT22;34323;52.022;5.686;2022-10-16T05:54:18;17.50;99.90
48535;DHT22;34323;52.022;5.686;2022-10-16T05:56:43;17.70;99.90
48535;DHT22;34323;52.022;5.686;2022-10-16T05:59:09;17.90;99.90
48535;DHT22;34323;52.022;5.686;2022-10-16T06:01:35;17.90;99.90
48535;DHT22;34323;52.022;5.686;2022-10-16T06:04:01;17.70;99.90
48535;DHT22;34323;52.022;5.686;2022-10-16T06:06:27;17.80;99.90
48535;DHT22;34323;52.022;5.686;2022-10-16T06:08:54;17.90;99.90
48535;DHT22;34323;52.022;5.686;2022-10-16T06:11:23;17.90;99.90
48535;DHT22;34323;52.022;5.686;2022-10-16T06:13:53;17.90;99.90
48535;DHT22;34323;52.022;5.686;2022-10-16T06:16:19;17.90;99.90
48535;DHT22;34323;52.022;5.686;2022-10-16T06:18:46;17.80;99.90
48535;DHT22;34323;52.022;5.686;2022-10-16T06:21:18;17.90;99.90
48535;DHT22;34323;52.022;5.686;2022-10-16T06:23:44;17.90;99.90
48535;DHT22;34323;52.022;5.686;2022-10-16T06:26:13;17.50;99.90
48535;DHT22;34323;52.022;5.686;2022-10-16T06:28:39;17.20;99.90
48535;DHT22;34323;52.022;5.686;2022-10-16T06:31:07;17.30;99.90
48535;DHT22;34323;52.022;5.686;2022-10-16T06:33:33;17.40;99.90
48535;DHT22;34323;52.022;5.686;2022-10-16T06:38:29;17.40;99.90
48535;DHT22;34323;52.022;5.686;2022-10-16T06:40:55;17.60;99.90
48535;DHT22;34323;52.022;5.686;2022-10-16T06:43:21;18.00;99.90
48535;DHT22;34323;52.022;5.686;2022-10-16T06:45:54;18.30;99.90
48535;DHT22;34323;52.022;5.686;2022-10-16T06:48:20;18.30;99.90
48535;DHT22;34323;52.022;5.686;2022-10-16T06:51:09;18.20;99.90
48535;DHT22;34323;52.022;5.686;2022-10-16T06:53:37;17.90;99.90
48535;DHT22;34323;52.022;5.686;2022-10-16T06:56:11;17.90;99.90
48535;DHT22;34323;52.022;5.686;2022-10-16T06:58:37;17.90;99.90
48535;DHT22;34323;52.022;5.686;2022-10-16T07:01:04;18.00;99.90
48535;DHT22;34323;52.022;5.686;2022-10-16T07:03:30;18.20;99.90
48535;DHT22;34323;52.022;5.686;2022-10-16T07:05:56;18.10;99.90
48535;DHT22;34323;52.022;5.686;2022-10-16T07:08:22;18.20;99.90
48535;DHT22;34323;52.022;5.686;2022-10-16T07:10:48;18.40;99.90
48535;DHT22;34323;52.022;5.686;2022-10-16T07:13:14;18.70;99.90
48535;DHT22;34323;52.022;5.686;2022-10-16T07:15:40;18.70;99.90
48535;DHT22;34323;52.022;5.686;2022-10-16T07:18:06;18.60;99.90
48535;DHT22;34323;52.022;5.686;2022-10-16T07:20:32;18.60;99.90
48535;DHT22;34323;52.022;5.686;2022-10-16T07:22:58;18.40;99.90
48535;DHT22;34323;52.022;5.686;2022-10-16T07:25:23;18.30;99.90
48535;DHT22;34323;52.022;5.686;2022-10-16T07:27:49;18.30;99.90
48535;DHT22;34323;52.022;5.686;2022-10-16T07:30:14;18.50;99.90
48535;DHT22;34323;52.022;5.686;2022-10-16T07:32:40;18.40;99.90
48535;DHT22;34323;52.022;5.686;2022-10-16T07:35:06;18.30;99.90
48535;DHT22;34323;52.022;5.686;2022-10-16T07:37:31;18.20;99.90
48535;DHT22;34323;52.022;5.686;2022-10-16T07:39:57;17.90;99.90
48535;DHT22;34323;52.022;5.686;2022-10-16T07:42:23;17.80;99.90
48535;DHT22;34323;52.022;5.686;2022-10-16T07:44:48;17.60;99.90
48535;DHT22;34323;52.022;5.686;2022-10-16T07:47:14;17.70;99.90
48535;DHT22;34323;52.022;5.686;2022-10-16T07:49:39;17.50;99.90
48535;DHT22;34323;52.022;5.686;2022-10-16T07:52:05;17.90;99.90
48535;DHT22;34323;52.022;5.686;2022-10-16T07:54:30;18.10;99.90
48535;DHT22;34323;52.022;5.686;2022-10-16T07:56:56;18.20;99.90
48535;DHT22;34323;52.022;5.686;2022-10-16T07:59:21;18.00;99.90
48535;DHT22;34323;52.022;5.686;2022-10-16T08:01:49;18.10;99.90
48535;DHT22;34323;52.022;5.686;2022-10-16T08:04:15;18.00;99.90
48535;DHT22;34323;52.022;5.686;2022-10-16T08:06:41;18.00;99.90
48535;DHT22;34323;52.022;5.686;2022-10-16T08:09:07;18.10;99.90
48535;DHT22;34323;52.022;5.686;2022-10-16T08:11:33;18.10;99.90
48535;DHT22;34323;52.022;5.686;2022-10-16T08:13:58;18.30;99.90
48535;DHT22;34323;52.022;5.686;2022-10-16T08:16:24;18.30;99.90
48535;DHT22;34323;52.022;5.686;2022-10-16T08:18:49;18.30;99.90
48535;DHT22;34323;52.022;5.686;2022-10-16T08:21:18;18.30;99.90
48535;DHT22;34323;52.022;5.686;2022-10-16T08:23:44;18.40;99.90
48535;DHT22;34323;52.022;5.686;2022-10-16T08:26:11;18.50;99.90
48535;DHT22;34323;52.022;5.686;2022-10-16T08:28:37;18.50;99.90
48535;DHT22;34323;52.022;5.686;2022-10-16T08:31:13;18.50;99.90
48535;DHT22;34323;52.022;5.686;2022-10-16T08:33:41;18.40;99.90
48535;DHT22;34323;52.022;5.686;2022-10-16T08:36:09;18.60;99.90
48535;DHT22;34323;52.022;5.686;2022-10-16T08:38:36;18.60;99.90
48535;DHT22;34323;52.022;5.686;2022-10-16T08:47:17;18.30;99.90
48535;DHT22;34323;52.022;5.686;2022-10-16T08:49:55;17.90;99.90
48535;DHT22;34323;52.022;5.686;2022-10-16T08:52:22;18.00;99.90
48535;DHT22;34323;52.022;5.686;2022-10-16T08:54:53;18.30;99.90
48535;DHT22;34323;52.022;5.686;2022-10-16T08:57:22;18.40;99.90
48535;DHT22;34323;52.022;5.686;2022-10-16T08:59:48;18.60;99.90
48535;DHT22;34323;52.022;5.686;2022-10-16T09:03:16;18.70;99.90
48535;DHT22;34323;52.022;5.686;2022-10-16T09:05:23;18.80;99.90
48535;DHT22;34323;52.022;5.686;2022-10-16T09:08:13;19.10;99.90
48535;DHT22;34323;52.022;5.686;2022-10-16T09:11:18;19.20;99.90
48535;DHT22;34323;52.022;5.686;2022-10-16T09:13:52;19.10;99.90
48535;DHT22;34323;52.022;5.686;2022-10-16T09:16:30;18.90;99.90
48535;DHT22;34323;52.022;5.686;2022-10-16T09:19:22;19.00;99.90
48535;DHT22;34323;52.022;5.686;2022-10-16T09:21:49;19.00;99.90
48535;DHT22;34323;52.022;5.686;2022-10-16T09:24:18;19.20;99.90
48535;DHT22;34323;52.022;5.686;2022-10-16T09:26:44;19.40;99.90
48535;DHT22;34323;52.022;5.686;2022-10-16T09:29:18;19.20;99.90
48535;DHT22;34323;52.022;5.686;2022-10-16T09:31:48;18.90;99.90
48535;DHT22;34323;52.022;5.686;2022-10-16T09:34:30;18.40;99.90
48535;DHT22;34323;52.022;5.686;2022-10-16T09:36:57;18.60;99.90
48535;DHT22;34323;52.022;5.686;2022-10-16T09:39:24;18.90;99.90
48535;DHT22;34323;52.022;5.686;2022-10-16T09:41:50;19.40;99.90
48535;DHT22;34323;52.022;5.686;2022-10-16T09:44:28;19.40;99.90
48535;DHT22;34323;52.022;5.686;2022-10-16T09:47:11;19.40;99.90
48535;DHT22;34323;52.022;5.686;2022-10-16T09:49:37;19.80;99.90
48535;DHT22;34323;52.022;5.686;2022-10-16T09:52:11;20.20;99.90
48535;DHT22;34323;52.022;5.686;2022-10-16T09:54:38;20.50;99.90
48535;DHT22;34323;52.022;5.686;2022-10-16T09:57:13;20.30;99.90
48535;DHT22;34323;52.022;5.686;2022-10-16T09:59:47;20.50;99.90
48535;DHT22;34323;52.022;5.686;2022-10-16T10:02:15;20.60;99.90
48535;DHT22;34323;52.022;5.686;2022-10-16T10:04:48;20.30;99.90
48535;DHT22;34323;52.022;5.686;2022-10-16T10:07:21;19.80;99.90
48535;DHT22;34323;52.022;5.686;2022-10-16T10:09:48;19.80;99.90
48535;DHT22;34323;52.022;5.686;2022-10-16T10:12:19;20.20;99.90
48535;DHT22;34323;52.022;5.686;2022-10-16T10:14:48;20.70;99.90
48535;DHT22;34323;52.022;5.686;2022-10-16T10:17:27;20.90;99.90
48535;DHT22;34323;52.022;5.686;2022-10-16T10:30:30;21.20;99.90
48535;DHT22;34323;52.022;5.686;2022-10-16T10:36:29;21.20;99.90
48535;DHT22;34323;52.022;5.686;2022-10-16T10:39:19;21.20;99.90
48535;DHT22;34323;52.022;5.686;2022-10-16T10:42:48;21.00;99.90
48535;DHT22;34323;52.022;5.686;2022-10-16T10:45:15;21.70;99.90
48535;DHT22;34323;52.022;5.686;2022-10-16T10:50:49;22.20;99.90
48535;DHT22;34323;52.022;5.686;2022-10-16T10:53:21;22.40;99.90
48535;DHT22;34323;52.022;5.686;2022-10-16T10:56:26;22.40;99.90
48535;DHT22;34323;52.022;5.686;2022-10-16T10:59:19;22.60;99.90
48535;DHT22;34323;52.022;5.686;2022-10-16T11:01:56;22.90;99.90
48535;DHT22;34323;52.022;5.686;2022-10-16T11:07:41;22.90;99.90
48535;DHT22;34323;52.022;5.686;2022-10-16T11:10:21;23.00;99.90
48535;DHT22;34323;52.022;5.686;2022-10-16T11:12:52;22.70;99.90
48535;DHT22;34323;52.022;5.686;2022-10-16T11:15:32;22.10;99.90
48535;DHT22;34323;52.022;5.686;2022-10-16T11:18:19;22.30;99.90
48535;DHT22;34323;52.022;5.686;2022-10-16T11:20:51;23.00;99.90
48535;DHT22;34323;52.022;5.686;2022-10-16T11:23:30;23.40;99.90
48535;DHT22;34323;52.022;5.686;2022-10-16T11:26:00;22.60;99.90
48535;DHT22;34323;52.022;5.686;2022-10-16T11:28:37;23.00;99.90
48535;DHT22;34323;52.022;5.686;2022-10-16T11:31:22;23.50;99.90
48535;DHT22;34323;52.022;5.686;2022-10-16T11:34:00;23.40;99.90
48535;DHT22;34323;52.022;5.686;2022-10-16T11:36:34;22.80;99.90
48535;DHT22;34323;52.022;5.686;2022-10-16T11:41:35;23.10;99.90
48535;DHT22;34323;52.022;5.686;2022-10-16T11:47:23;24.10;99.90
48535;DHT22;34323;52.022;5.686;2022-10-16T11:49:53;24.10;99.90
48535;DHT22;34323;52.022;5.686;2022-10-16T11:52:43;24.40;99.90
48535;DHT22;34323;52.022;5.686;2022-10-16T11:55:49;23.90;99.90
48535;DHT22;34323;52.022;5.686;2022-10-16T11:58:25;23.70;99.90
48535;DHT22;34323;52.022;5.686;2022-10-16T12:01:18;23.40;99.90
48535;DHT22;34323;52.022;5.686;2022-10-16T12:08:53;23.40;99.90
48535;DHT22;34323;52.022;5.686;2022-10-16T12:11:33;23.50;99.90
48535;DHT22;34323;52.022;5.686;2022-10-16T12:19:31;22.80;99.90
48535;DHT22;34323;52.022;5.686;2022-10-16T12:21:59;22.80;99.90
48535;DHT22;34323;52.022;5.686;2022-10-16T12:24:41;23.00;99.90
48535;DHT22;34323;52.022;5.686;2022-10-16T12:27:25;22.80;99.90
48535;DHT22;34323;52.022;5.686;2022-10-16T12:30:00;23.70;99.90
48535;DHT22;34323;52.022;5.686;2022-10-16T12:32:33;24.50;99.90
48535;DHT22;34323;52.022;5.686;2022-10-16T12:35:00;25.00;99.90
48535;DHT22;34323;52.022;5.686;2022-10-16T12:37:36;24.20;99.90
48535;DHT22;34323;52.022;5.686;2022-10-16T12:40:24;24.00;99.90
48535;DHT22;34323;52.022;5.686;2022-10-16T12:42:50;23.90;99.90
48535;DHT22;34323;52.022;5.686;2022-10-16T12:45:31;24.80;99.90
48535;DHT22;34323;52.022;5.686;2022-10-16T12:48:02;25.50;99.90
48535;DHT22;34323;52.022;5.686;2022-10-16T12:50:38;26.70;99.90
48535;DHT22;34323;52.022;5.686;2022-10-16T12:53:20;27.00;99.90
48535;DHT22;34323;52.022;5.686;2022-10-16T12:58:50;26.60;99.90
48535;DHT22;34323;52.022;5.686;2022-10-16T13:01:31;26.60;99.90
48535;DHT22;34323;52.022;5.686;2022-10-16T13:04:14;26.60;99.90
48535;DHT22;34323;52.022;5.686;2022-10-16T13:07:03;27.70;99.90
48535;DHT22;34323;52.022;5.686;2022-10-16T13:09:56;28.00;99.90
48535;DHT22;34323;52.022;5.686;2022-10-16T13:21:18;31.20;99.90
48535;DHT22;34323;52.022;5.686;2022-10-16T13:24:18;31.60;99.90
48535;DHT22;34323;52.022;5.686;2022-10-16T13:29:41;30.30;99.00
48535;DHT22;34323;52.022;5.686;2022-10-16T13:32:09;30.30;99.90
48535;DHT22;34323;52.022;5.686;2022-10-16T13:34:45;30.70;99.80
48535;DHT22;34323;52.022;5.686;2022-10-16T13:37:24;30.30;99.00
48535;DHT22;34323;52.022;5.686;2022-10-16T13:39:50;30.40;99.10
48535;DHT22;34323;52.022;5.686;2022-10-16T13:42:24;30.80;99.20
48535;DHT22;34323;52.022;5.686;2022-10-16T13:44:52;30.70;98.20
48535;DHT22;34323;52.022;5.686;2022-10-16T13:47:26;30.30;98.30
48535;DHT22;34323;52.022;5.686;2022-10-16T13:50:06;28.90;98.90
48535;DHT22;34323;52.022;5.686;2022-10-16T13:52:34;28.50;99.90
48535;DHT22;34323;52.022;5.686;2022-10-16T13:54:59;28.60;99.90
48535;DHT22;34323;52.022;5.686;2022-10-16T13:57:25;28.20;99.90
48535;DHT22;34323;52.022;5.686;2022-10-16T13:59:51;28.20;99.90
48535;DHT22;34323;52.022;5.686;2022-10-16T14:02:26;28.20;99.90
48535;DHT22;34323;52.022;5.686;2022-10-16T14:04:55;28.40;99.90
48535;DHT22;34323;52.022;5.686;2022-10-16T14:07:27;28.30;99.90
48535;DHT22;34323;52.022;5.686;2022-10-16T14:09:54;28.30;99.90
48535;DHT22;34323;52.022;5.686;2022-10-16T14:12:22;28.30;99.90
48535;DHT22;34323;52.022;5.686;2022-10-16T14:14:52;28.40;99.90
48535;DHT22;34323;52.022;5.686;2022-10-16T14:17:30;27.70;99.80
48535;DHT22;34323;52.022;5.686;2022-10-16T14:19:58;26.50;99.90
48535;DHT22;34323;52.022;5.686;2022-10-16T14:24:59;25.70;99.90
48535;DHT22;34323;52.022;5.686;2022-10-16T14:27:32;25.60;99.90
48535;DHT22;34323;52.022;5.686;2022-10-16T14:30:20;25.30;99.90
48535;DHT22;34323;52.022;5.686;2022-10-16T14:33:23;25.20;99.90
48535;DHT22;34323;52.022;5.686;2022-10-16T14:36:21;25.00;99.90
48535;DHT22;34323;52.022;5.686;2022-10-16T14:39:06;24.60;99.90
48535;DHT22;34323;52.022;5.686;2022-10-16T14:41:45;25.30;99.90
48535;DHT22;34323;52.022;5.686;2022-10-16T14:44:12;25.90;99.90
48535;DHT22;34323;52.022;5.686;2022-10-16T14:46:39;26.10;99.90
48535;DHT22;34323;52.022;5.686;2022-10-16T14:51:41;25.50;99.90
48535;DHT22;34323;52.022;5.686;2022-10-16T14:54:14;25.60;99.90
48535;DHT22;34323;52.022;5.686;2022-10-16T14:56:50;25.60;99.90
48535;DHT22;34323;52.022;5.686;2022-10-16T14:59:25;25.50;99.90
48535;DHT22;34323;52.022;5.686;2022-10-16T15:01:50;24.60;99.90
48535;DHT22;34323;52.022;5.686;2022-10-16T15:04:16;23.70;99.90
48535;DHT22;34323;52.022;5.686;2022-10-16T15:06:43;23.10;99.90
48535;DHT22;34323;52.022;5.686;2022-10-16T15:09:08;22.90;99.90
48535;DHT22;34323;52.022;5.686;2022-10-16T15:11:34;23.00;99.90
48535;DHT22;34323;52.022;5.686;2022-10-16T15:14:00;22.80;99.90
48535;DHT22;34323;52.022;5.686;2022-10-16T15:16:26;22.60;99.90
48535;DHT22;34323;52.022;5.686;2022-10-16T15:18:51;22.60;99.90
48535;DHT22;34323;52.022;5.686;2022-10-16T15:21:26;22.50;99.90
48535;DHT22;34323;52.022;5.686;2022-10-16T15:23:53;22.20;99.90
48535;DHT22;34323;52.022;5.686;2022-10-16T15:26:18;22.10;99.90
48535;DHT22;34323;52.022;5.686;2022-10-16T15:28:44;22.00;99.90
48535;DHT22;34323;52.022;5.686;2022-10-16T15:31:10;22.10;99.90
48535;DHT22;34323;52.022;5.686;2022-10-16T15:33:35;22.20;99.90
48535;DHT22;34323;52.022;5.686;2022-10-16T15:36:02;22.50;99.90
48535;DHT22;34323;52.022;5.686;2022-10-16T15:38:28;22.70;99.90
48535;DHT22;34323;52.022;5.686;2022-10-16T15:40:55;23.00;99.90
48535;DHT22;34323;52.022;5.686;2022-10-16T15:43:20;23.00;99.90
48535;DHT22;34323;52.022;5.686;2022-10-16T15:46:05;23.00;99.90
48535;DHT22;34323;52.022;5.686;2022-10-16T15:48:32;22.80;99.90
48535;DHT22;34323;52.022;5.686;2022-10-16T15:50:58;22.70;99.90
48535;DHT22;34323;52.022;5.686;2022-10-16T15:53:24;22.50;99.90
48535;DHT22;34323;52.022;5.686;2022-10-16T15:55:50;22.50;99.90
48535;DHT22;34323;52.022;5.686;2022-10-16T15:58:16;22.60;99.90
48535;DHT22;34323;52.022;5.686;2022-10-16T16:00:41;22.40;99.90
48535;DHT22;34323;52.022;5.686;2022-10-16T16:03:07;22.10;99.90
48535;DHT22;34323;52.022;5.686;2022-10-16T16:05:33;21.90;99.90
48535;DHT22;34323;52.022;5.686;2022-10-16T16:08:00;21.80;99.90
48535;DHT22;34323;52.022;5.686;2022-10-16T16:10:26;21.90;99.90
48535;DHT22;34323;52.022;5.686;2022-10-16T16:12:51;22.10;99.90
48535;DHT22;34323;52.022;5.686;2022-10-16T16:15:20;22.10;99.90
48535;DHT22;34323;52.022;5.686;2022-10-16T16:17:46;22.10;99.90
48535;DHT22;34323;52.022;5.686;2022-10-16T16:20:11;22.00;99.90
48535;DHT22;34323;52.022;5.686;2022-10-16T16:22:37;22.00;99.90
48535;DHT22;34323;52.022;5.686;2022-10-16T16:25:03;21.80;99.90
48535;DHT22;34323;52.022;5.686;2022-10-16T16:27:29;21.70;99.90
48535;DHT22;34323;52.022;5.686;2022-10-16T16:29:58;21.60;99.90
48535;DHT22;34323;52.022;5.686;2022-10-16T16:32:23;21.50;99.90
48535;DHT22;34323;52.022;5.686;2022-10-16T16:34:49;21.50;99.90
48535;DHT22;34323;52.022;5.686;2022-10-16T16:37:14;21.50;99.90
48535;DHT22;34323;52.022;5.686;2022-10-16T16:39:41;21.40;99.90
48535;DHT22;34323;52.022;5.686;2022-10-16T16:42:06;21.30;99.90
48535;DHT22;34323;52.022;5.686;2022-10-16T16:44:33;21.30;99.90
48535;DHT22;34323;52.022;5.686;2022-10-16T16:47:01;21.30;99.90
48535;DHT22;34323;52.022;5.686;2022-10-16T16:49:27;21.40;99.90
48535;DHT22;34323;52.022;5.686;2022-10-16T16:51:53;21.30;99.90
48535;DHT22;34323;52.022;5.686;2022-10-16T16:54:19;21.30;99.90
48535;DHT22;34323;52.022;5.686;2022-10-16T16:56:45;21.20;99.90
48535;DHT22;34323;52.022;5.686;2022-10-16T16:59:16;21.10;99.90
48535;DHT22;34323;52.022;5.686;2022-10-16T17:01:43;21.10;99.90
48535;DHT22;34323;52.022;5.686;2022-10-16T17:04:09;21.20;99.90